Live Your Life

Объявление

Информация о пользователе

Привет, Гость! Войдите или зарегистрируйтесь.


Вы здесь » Live Your Life » Неформат


Неформат

Тем 1 страница 30 из 34

Тема Ответов Просмотров Последнее сообщение
12 261 Вчера 21:54:59  Pa-ku
2 Nex|t|us  Melinda
9 1072 Вчера 18:58:03  Melinda
3 lucomoria  sonnegrau
0 41 Вчера 11:07:38  sonnegrau
5 216 20-10-2018 21:30:11  Margarit Crowx
5 Ever after  Вьюга
0 68 20-10-2018 18:20:13  Вьюга
29 838 20-10-2018 16:35:38  до_одури
7 В шаге от трона  Королевство Камбрия
7 182 20-10-2018 14:41:56  Королевство Камбрия
75 3070 19-10-2018 19:43:01  DeWitt
17 1168 19-10-2018 08:13:28  Флинт
9 794 18-10-2018 15:19:02  Oxymoron
199 11721 18-10-2018 10:27:20  LRS
12 Deviant  переснежник
8 288 16-10-2018 21:11:23  Teacook
175 5132 16-10-2018 17:47:41  Vitaminka
14 Атлантида  Kiros56488123
5 262 16-10-2018 14:40:54  Kiros56488123
1 192 15-10-2018 20:25:56  Morgoth
3 131 15-10-2018 00:44:16  Hurley
17 Darkworld  Дымок
0 93 11-10-2018 21:38:18  Дымок
113 4684 09-10-2018 22:17:58  Automation baby
26 1066 09-10-2018 10:11:21  Огнеязыцый
20 blood & water  Aleander
4 250 06-10-2018 13:23:11  Aleander
44 4514 06-10-2018 00:00:27  Prologue
22 Нассау  Летучий Голландец  [ Тема 22 Page 1 Тема 22 Page 2 Тема 22 Page 3 ]
43 2217 05-10-2018 19:23:44  Флинт
23 Holy Sh!t  грандоченька смерти
4 200 05-10-2018 00:19:17  грандоченька смерти
24 Tempus Futurum  Jonah
12 440 04-10-2018 11:26:01  Jonah
33 930 03-10-2018 06:27:02  Luiziata
26 Космический ветер  Кот капитана Флинта  [ Тема 26 Page 1 Тема 26 Page 2 ]
29 1405 02-10-2018 07:31:01  Кот капитана Флинта
26 872 23-09-2018 12:51:55  Mowin
28 false impulse  aurum seneca
10 295 18-09-2018 21:51:52  aurum seneca
19 429 16-09-2018 18:43:03  Heath
0 112 01-09-2018 05:59:17  Jin Archer

Вы здесь » Live Your Life » Неформат


Рейтинг форумов | Создать форум бесплатно © 2007–2017 «QuadroSystems» LLC